Airfield :
LOGIN :

Register | Disclaimer

   EN    FR    IT 

 










Legend :    VFR   Marginal VFR   IFR   Intensive IFR   Very Intensive IFR
Visi :
Ceiling :
>= 8 km
>= 3000ft
5 to 8 km
1000 to 3000 ft
1500m to 5 km
500 to 1000 ft
800 to 1500m
200 to 500 ft
< 800m
< 200 ft
Symbols :   Thunderstorms  Fog  Heavy snow  Heavy precipitations  Wind > 20 kt
SIGMETs :     Misc.  Thunderstorms  Icing  Turbulence  Mountain Waves  Volcanic Ashes







- Airport Elevation : 125 ft
- IATA code : MGL


EDLN - Mönchengladbach

CURRENT METAR :
  • 221220Z 12013KT CAVOK 24/03 Q1008

EXPIRED METARs :
  • 221150Z 11014KT CAVOK 24/03 Q1008
  • 221120Z 12016KT 090V150 CAVOK 24/02 Q1008
  • 221050Z 13013KT CAVOK 23/03 Q1009
  • 221020Z 11013KT 080V140 CAVOK 23/04 Q1009
  • 220950Z 12008KT 100V160 CAVOK 22/05 Q1010

TAF TAF EDLN
Valid from the 22 at 12:00 until the 22 at 21:00 UTC


221100Z 2212/2221 12012KT CAVOK
No reported NOTAMs for that airfield.



MET'MAP, your aeronautical weather chart ! - Copyright ORBIFLY December 2007 - Disclaimer

ORBIFLY MET'MAP TEAM :

Programming & Development : Alexandra Zaïnal
Concept & Development : Baudouin d'Aumeries
Co-Development & Prog : Marc-Olivier Méhu
Technical & hardware support : Manuel Goepfert

Contact : metmap@orbifly.com




SOURCES & CREDITS :

   NOAA